Time;durP1;ratioP1;P1;durP2;ratioP2;P2;SDS_P1;SDS_P2;PMS_P1;PMS_P2;Temp;Humidity;BMP_temperature;BMP_pressure;BME280_temperature;BME280_humidity;BME280_pressure;Samples;Min_cycle;Max_cycle;Signal;HPM_P1;HPM_P2
2022/10/11 00:00:29;;;;;;;;;;;;;;;21.73;59.03;101530.09;5013277;28;2717;-58
2022/10/11 00:02:56;;;;;;;;;;;;;;;21.75;58.82;101532.34;5014354;28;2702;-59
2022/10/11 00:05:22;;;;;;;;;;;;;;;21.74;58.85;101536.63;5017139;28;2453;-59
2022/10/11 00:07:49;;;;;;;;;;;;;;;21.72;58.60;101540.16;5017400;28;2831;-58
2022/10/11 00:10:15;;;;;;;;;;;;;;;21.74;58.50;101548.91;5019519;28;1747;-59
2022/10/11 00:12:41;;;;;;;;;;;;;;;21.73;58.56;101547.41;5021604;28;2710;-59
2022/10/11 00:15:09;;;;;;;;;;;;;;;21.73;58.54;101561.81;5017569;28;1871;-59
2022/10/11 00:17:36;;;;;;;;;;;;;;;21.73;58.46;101569.72;5028445;28;2957;-59
2022/10/11 00:20:02;;;;;;;;;;;;;;;21.73;58.67;101566.84;5015496;28;2733;-59
2022/10/11 00:22:29;;;;;;;;;;;;;;;21.71;58.36;101573.25;5014629;28;1693;-59
2022/10/11 00:24:55;;;;;;;;;;;;;;;21.71;58.70;101573.25;5017455;28;3983;-59
2022/10/11 00:27:21;;;;;;;;;;;;;;;21.69;58.89;101576.03;5015395;28;2868;-59
2022/10/11 00:29:48;;;;;;;;;;;;;;;21.71;58.76;101579.00;5015924;28;2737;-59
2022/10/11 00:32:14;;;;;;;;;;;;;;;21.71;58.38;101581.88;5015886;28;2768;-59
2022/10/11 00:34:40;;;;;;;;;;;;;;;21.71;58.73;101581.88;5016537;28;2617;-59
2022/10/11 00:37:06;;;;;;;;;;;;;;;21.71;58.62;101595.56;5011823;28;2817;-59
2022/10/11 00:39:33;;;;;;;;;;;;;;;21.71;58.92;101595.56;5010680;28;2904;-58
2022/10/11 00:41:59;;;;;;;;;;;;;;;21.70;58.64;101603.47;5010601;28;2796;-59
2022/10/11 00:44:26;;;;;;;;;;;;;;;21.69;58.76;101604.88;5014068;28;2877;-59
2022/10/11 00:46:54;;;;;;;;;;;;;;;21.67;58.73;101604.75;5010424;28;2957;-59
2022/10/11 00:49:27;;;;;;;;;;;;;;;21.69;58.71;101609.88;5012036;28;2914;-58
2022/10/11 00:51:57;;;;;;;;;;;;;;;21.68;58.57;101609.13;5013624;28;2998;-58
2022/10/11 00:54:24;;;;;;;;;;;;;;;21.69;58.70;101619.28;5012492;28;2856;-59
2022/10/11 00:56:52;;;;;;;;;;;;;;;21.67;58.50;101619.16;5016722;28;1689;-59
2022/10/11 00:59:20;;;;;;;;;;;;;;;21.69;58.74;101616.41;5016079;28;2912;-59
2022/10/11 01:01:47;;;;;;;;;;;;;;;21.66;58.55;101617.66;5015668;28;3098;-59
2022/10/11 01:04:13;;;;;;;;;;;;;;;21.67;58.75;101624.16;5012896;28;2835;-59
2022/10/11 01:06:40;;;;;;;;;;;;;;;21.67;58.61;101624.94;5012048;28;2765;-59
2022/10/11 01:09:06;;;;;;;;;;;;;;;21.65;58.38;101621.94;5006169;28;3450;-59
2022/10/11 01:11:32;;;;;;;;;;;;;;;21.66;58.82;101628.44;5025691;28;2679;-59
2022/10/11 01:14:17;;;;;;;;;;;;;;;21.66;58.58;101629.19;5012083;28;2822;-59
2022/10/11 01:16:50;;;;;;;;;;;;;;;21.64;58.65;101631.97;5013271;28;2733;-59
2022/10/11 01:19:33;;;;;;;;;;;;;;;21.64;58.27;101643.50;5008141;28;2915;-59
2022/10/11 01:22:28;;;;;;;;;;;;;;;21.64;58.52;101636.97;5029397;28;2540;-59
2022/10/11 01:25:14;;;;;;;;;;;;;;;21.64;58.80;101636.97;5003876;28;2652;-59
2022/10/11 01:27:49;;;;;;;;;;;;;;;21.63;58.76;101644.88;5009864;28;1662;-58
2022/10/11 01:30:20;;;;;;;;;;;;;;;21.62;58.89;101649.13;5015839;28;2989;-59
2022/10/11 01:32:47;;;;;;;;;;;;;;;21.62;58.46;101645.50;5008670;28;2703;-59
2022/10/11 01:35:31;;;;;;;;;;;;;;;21.61;58.50;101650.53;5017081;28;1877;-59
2022/10/11 01:37:57;;;;;;;;;;;;;;;21.61;58.69;101650.53;5026912;28;2824;-59
2022/10/11 01:40:25;;;;;;;;;;;;;;;21.62;58.43;101651.28;5011620;28;2758;-59
2022/10/11 01:42:52;;;;;;;;;;;;;;;21.62;58.24;101659.94;5021259;28;2865;-59
2022/10/11 01:45:18;;;;;;;;;;;;;;;21.60;58.67;101651.16;5012063;28;2720;-58
2022/10/11 01:47:44;;;;;;;;;;;;;;;21.60;58.37;101656.94;5014580;28;2897;-59
2022/10/11 01:50:29;;;;;;;;;;;;;;;21.59;58.34;101659.06;5011327;28;2430;-59
2022/10/11 01:52:56;;;;;;;;;;;;;;;21.60;58.57;101672.13;5012241;28;2401;-59
2022/10/11 01:55:24;;;;;;;;;;;;;;;21.59;58.52;101661.97;5029319;28;1685;-59
2022/10/11 01:57:54;;;;;;;;;;;;;;;21.58;58.68;101657.59;5017343;28;2967;-59
2022/10/11 02:00:21;;;;;;;;;;;;;;;21.58;58.56;101663.34;5031188;28;2838;-59
2022/10/11 02:02:57;;;;;;;;;;;;;;;21.57;58.56;101667.59;5011871;28;2910;-59
2022/10/11 02:05:29;;;;;;;;;;;;;;;21.58;58.49;101669.13;5016712;28;2481;-59
2022/10/11 02:08:04;;;;;;;;;;;;;;;21.58;58.61;101674.88;5023276;28;2607;-59
2022/10/11 02:10:36;;;;;;;;;;;;;;;21.57;58.33;101678.38;5013575;28;2646;-58
2022/10/11 02:13:05;;;;;;;;;;;;;;;21.57;58.35;101675.50;5011407;28;2760;-58
2022/10/11 02:15:31;;;;;;;;;;;;;;;21.57;58.71;101681.28;5028629;28;2931;-59
2022/10/11 02:17:58;;;;;;;;;;;;;;;21.56;58.39;101689.19;5027870;28;2888;-59
2022/10/11 02:20:25;;;;;;;;;;;;;;;21.55;58.49;101687.66;5014377;28;2802;-59
2022/10/11 02:22:52;;;;;;;;;;;;;;;21.55;58.73;101687.66;5006690;28;2867;-59
2022/10/11 02:25:23;;;;;;;;;;;;;;;21.56;58.52;101694.19;5019472;28;2885;-58
2022/10/11 02:27:50;;;;;;;;;;;;;;;21.54;58.60;101686.94;5018090;28;2883;-59
2022/10/11 02:30:16;;;;;;;;;;;;;;;21.54;58.44;101689.06;5029038;28;3029;-59
2022/10/11 02:32:42;;;;;;;;;;;;;;;21.54;58.51;101697.72;5008767;28;2812;-59
2022/10/11 02:35:09;;;;;;;;;;;;;;;21.53;58.43;101684.66;5032204;28;2741;-59
2022/10/11 02:37:38;;;;;;;;;;;;;;;21.52;58.52;101695.47;5015520;28;2872;-58
2022/10/11 02:40:21;;;;;;;;;;;;;;;21.52;58.15;101695.47;5008129;28;2868;-59
2022/10/11 02:42:48;;;;;;;;;;;;;;;21.53;58.35;101699.09;5007433;28;2958;-58
2022/10/11 02:45:17;;;;;;;;;;;;;;;21.55;58.34;101704.97;5029789;28;2818;-59
2022/10/11 02:47:44;;;;;;;;;;;;;;;21.58;58.36;101703.69;5014983;28;2757;-59
2022/10/11 02:50:10;;;;;;;;;;;;;;;21.60;58.37;101706.69;5016708;28;2462;-59
2022/10/11 02:52:37;;;;;;;;;;;;;;;21.63;58.33;101708.28;5016138;28;2775;-59
2022/10/11 02:55:03;;;;;;;;;;;;;;;21.66;58.19;101704.13;5011886;28;2647;-59
2022/10/11 02:57:30;;;;;;;;;;;;;;;21.67;58.66;101705.66;5015596;28;2647;-59
2022/10/11 02:59:56;;;;;;;;;;;;;;;21.67;59.13;101711.41;5007779;28;2843;-59
2022/10/11 03:02:22;;;;;;;;;;;;;;;21.69;58.39;101720.16;5015492;28;2787;-59
2022/10/11 03:04:49;;;;;;;;;;;;;;;21.69;58.80;101717.28;5015612;28;2423;-59
2022/10/11 03:07:15;;;;;;;;;;;;;;;21.69;59.06;101720.16;5016937;28;2430;-59
2022/10/11 03:09:41;;;;;;;;;;;;;;;21.69;59.19;101725.94;5010173;28;2819;-59
2022/10/11 03:12:07;;;;;;;;;;;;;;;21.70;59.05;101733.19;5012261;28;2798;-59
2022/10/11 03:14:34;;;;;;;;;;;;;;;21.70;58.50;101733.19;5010969;28;2770;-59
2022/10/11 03:17:00;;;;;;;;;;;;;;;21.71;58.71;101734.66;5005086;28;2884;-59
2022/10/11 03:19:47;;;;;;;;;;;;;;;21.67;59.18;101743.13;5016900;28;2836;-59
2022/10/11 03:22:13;;;;;;;;;;;;;;;21.71;58.89;101745.47;5008780;28;2916;-59
2022/10/11 03:24:39;;;;;;;;;;;;;;;21.71;59.06;101746.19;5009497;28;2878;-59
2022/10/11 03:27:06;;;;;;;;;;;;;;;21.73;58.78;101754.97;5008249;28;2816;-59
2022/10/11 03:29:32;;;;;;;;;;;;;;;21.73;59.20;101754.97;5008722;28;3286;-59
2022/10/11 03:31:58;;;;;;;;;;;;;;;21.73;59.04;101757.84;5007183;28;3045;-59
2022/10/11 03:34:25;;;;;;;;;;;;;;;21.73;59.19;101754.97;5010543;28;3003;-59
2022/10/11 03:36:51;;;;;;;;;;;;;;;21.75;59.06;101763.72;5008765;28;3062;-59
2022/10/11 03:39:17;;;;;;;;;;;;;;;21.75;58.91;101757.97;5008760;28;2940;-59
2022/10/11 03:41:44;;;;;;;;;;;;;;;21.75;59.16;101763.72;5014925;28;3036;-59
2022/10/11 03:44:10;;;;;;;;;;;;;;;21.75;59.07;101771.63;5012041;28;2928;-59
2022/10/11 03:46:36;;;;;;;;;;;;;;;21.75;58.92;101769.50;5009512;28;2851;-59
2022/10/11 03:49:03;;;;;;;;;;;;;;;21.74;59.08;101768.00;5013339;28;3019;-59
2022/10/11 03:51:30;;;;;;;;;;;;;;;21.73;59.33;101769.38;5013056;28;3019;-59
2022/10/11 03:53:56;;;;;;;;;;;;;;;21.72;59.35;101770.78;5013190;28;2615;-59
2022/10/11 03:56:22;;;;;;;;;;;;;;;21.72;59.30;101776.53;5005689;28;2864;-59
2022/10/11 03:58:49;;;;;;;;;;;;;;;21.75;58.97;101774.50;5011983;28;2912;-59
2022/10/11 04:01:15;;;;;;;;;;;;;;;21.75;59.23;101780.28;5009654;28;3141;-59
2022/10/11 04:03:41;;;;;;;;;;;;;;;21.77;59.05;101789.03;5007540;28;3246;-59
2022/10/11 04:06:08;;;;;;;;;;;;;;;21.77;59.15;101794.06;5013869;28;2934;-58
2022/10/11 04:08:34;;;;;;;;;;;;;;;21.77;59.35;101789.03;5009090;28;2869;-59
2022/10/11 04:11:00;;;;;;;;;;;;;;;21.75;59.19;101798.31;5010098;28;2892;-59
2022/10/11 04:13:27;;;;;;;;;;;;;;;21.78;59.39;101807.09;5008867;28;2825;-59
2022/10/11 04:15:53;;;;;;;;;;;;;;;21.76;59.44;101810.59;5009774;28;2693;-59
2022/10/11 04:18:20;;;;;;;;;;;;;;;21.79;59.15;101814.38;5009018;28;3160;-59
2022/10/11 04:20:46;;;;;;;;;;;;;;;21.78;59.25;101807.81;5004469;28;3006;-59
2022/10/11 04:23:12;;;;;;;;;;;;;;;21.77;59.21;101817.13;5010913;28;2944;-59
2022/10/11 04:25:39;;;;;;;;;;;;;;;21.77;59.45;101817.13;5007107;28;2935;-59
2022/10/11 04:28:06;;;;;;;;;;;;;;;21.74;59.42;101819.16;5012469;28;3036;-59
2022/10/11 04:30:33;;;;;;;;;;;;;;;21.75;59.30;101829.28;5007994;28;2880;-59
2022/10/11 04:32:59;;;;;;;;;;;;;;;21.78;59.30;101830.16;5009656;28;3258;-59
2022/10/11 04:35:26;;;;;;;;;;;;;;;21.77;59.08;101829.41;5006157;28;2873;-59
2022/10/11 04:37:52;;;;;;;;;;;;;;;21.79;59.23;101825.91;5011431;28;3193;-59
2022/10/11 04:40:18;;;;;;;;;;;;;;;21.79;59.03;101825.91;5018976;28;3134;-58
2022/10/11 04:42:45;;;;;;;;;;;;;;;21.80;59.14;101824.50;5010206;28;2902;-59
2022/10/11 04:45:11;;;;;;;;;;;;;;;21.80;59.05;101833.91;5003057;28;2789;-59
2022/10/11 04:47:39;;;;;;;;;;;;;;;21.81;59.34;101834.66;5009140;28;2841;-59
2022/10/11 04:50:05;;;;;;;;;;;;;;;21.82;59.08;101841.91;5010035;28;3096;-59
2022/10/11 04:52:31;;;;;;;;;;;;;;;21.84;59.09;101842.03;5012639;28;2829;-59
2022/10/11 04:54:58;;;;;;;;;;;;;;;21.83;59.02;101843.41;5006815;28;3482;-63
2022/10/11 04:57:24;;;;;;;;;;;;;;;21.88;58.83;101845.16;5011389;28;2888;-69
2022/10/11 04:59:50;;;;;;;;;;;;;;;21.83;59.63;101843.41;5015039;28;2904;-65
2022/10/11 05:02:17;;;;;;;;;;;;;;;21.86;59.69;101848.66;5003168;28;2851;-70
2022/10/11 05:04:43;;;;;;;;;;;;;;;22.49;60.88;101853.50;5008401;28;2865;-68
2022/10/11 05:07:09;;;;;;;;;;;;;;;22.87;60.26;101857.69;5005295;28;3428;-69
2022/10/11 05:09:36;;;;;;;;;;;;;;;22.97;59.24;101858.19;5014255;28;2985;-63
2022/10/11 05:12:02;;;;;;;;;;;;;;;22.93;58.61;101866.66;5015538;28;3006;-62
2022/10/11 05:14:29;;;;;;;;;;;;;;;22.72;58.89;101864.88;5012371;28;3468;-73
2022/10/11 05:16:55;;;;;;;;;;;;;;;22.82;60.25;101867.53;5012160;28;5053;-73
2022/10/11 05:19:21;;;;;;;;;;;;;;;22.87;59.80;101875.00;5015225;28;3865;-69
2022/10/11 05:21:48;;;;;;;;;;;;;;;22.86;60.05;101882.19;5014523;28;4509;-70
2022/10/11 05:24:14;;;;;;;;;;;;;;;22.41;59.70;101876.19;5008261;28;4903;-72
2022/10/11 05:26:40;;;;;;;;;;;;;;;22.25;60.05;101881.81;5013134;28;4605;-63
2022/10/11 05:29:07;;;;;;;;;;;;;;;21.69;55.61;101875.06;5014902;28;3031;-69
2022/10/11 05:31:33;;;;;;;;;;;;;;;21.72;56.41;101874.56;5010034;28;4496;-70
2022/10/11 05:33:59;;;;;;;;;;;;;;;21.89;58.41;101884.88;5018540;28;3796;-69
2022/10/11 05:36:26;;;;;;;;;;;;;;;21.97;58.33;101893.25;5008957;28;4496;-70
2022/10/11 05:38:52;;;;;;;;;;;;;;;22.05;57.85;101892.94;5012756;28;4632;-69
2022/10/11 05:41:18;;;;;;;;;;;;;;;22.03;59.96;101896.44;5018337;28;2911;-69
2022/10/11 05:43:45;;;;;;;;;;;;;;;22.05;60.00;101907.34;5018365;28;2749;-69
2022/10/11 05:46:11;;;;;;;;;;;;;;;22.05;59.93;101913.13;5011465;28;4773;-69
2022/10/11 05:48:37;;;;;;;;;;;;;;;22.07;59.24;101902.44;5017311;28;4135;-81
2022/10/11 05:51:05;;;;;;;;;;;;;;;22.01;59.03;101904.97;5011158;28;4156;-70
2022/10/11 05:53:32;;;;;;;;;;;;;;;21.92;58.67;101915.34;5011630;28;5039;-70
2022/10/11 05:55:58;;;;;;;;;;;;;;;21.92;58.88;101914.56;5018198;28;2165;-70
2022/10/11 05:58:24;;;;;;;;;;;;;;;21.82;58.65;101916.88;5015178;28;4544;-70
2022/10/11 06:00:51;;;;;;;;;;;;;;;21.74;58.20;101920.81;5012845;28;4386;-73
2022/10/11 06:03:18;;;;;;;;;;;;;;;21.66;57.74;101925.34;5013526;28;4320;-71
2022/10/11 06:05:45;;;;;;;;;;;;;;;21.90;57.29;101934.66;5007999;28;4141;-69
2022/10/11 06:08:12;;;;;;;;;;;;;;;22.17;57.31;101934.75;5006960;28;4373;-67
2022/10/11 06:10:39;;;;;;;;;;;;;;;22.18;56.63;101930.47;5016258;28;4457;-67
2022/10/11 06:13:05;;;;;;;;;;;;;;;22.21;55.57;101927.72;5015796;28;4354;-65
2022/10/11 06:15:31;;;;;;;;;;;;;;;22.24;55.29;101938.78;5016244;28;2944;-65
2022/10/11 06:17:58;;;;;;;;;;;;;;;22.24;54.68;101935.13;5010461;28;4421;-64
2022/10/11 06:20:24;;;;;;;;;;;;;;;21.92;54.66;101949.16;5008559;28;4195;-65
2022/10/11 06:22:51;;;;;;;;;;;;;;;22.32;55.75;101941.34;5015470;28;4430;-72
2022/10/11 06:25:17;;;;;;;;;;;;;;;22.71;54.92;101949.22;5008538;28;4394;-69
2022/10/11 06:27:43;;;;;;;;;;;;;;;22.84;54.53;101951.38;5006652;28;4378;-72
2022/10/11 06:30:10;;;;;;;;;;;;;;;22.88;54.83;101953.72;5019613;28;2638;-72
2022/10/11 06:32:36;;;;;;;;;;;;;;;22.92;54.64;101963.34;5013629;28;4424;-71
2022/10/11 06:35:04;;;;;;;;;;;;;;;22.99;54.63;101959.44;5012416;28;4216;-69
2022/10/11 06:37:30;;;;;;;;;;;;;;;23.06;54.43;101968.44;5012193;28;4412;-68
2022/10/11 06:39:57;;;;;;;;;;;;;;;23.07;54.04;101972.81;5014197;28;2934;-69
2022/10/11 06:42:23;;;;;;;;;;;;;;;23.10;53.63;101974.44;5010585;28;4223;-68
2022/10/11 06:44:49;;;;;;;;;;;;;;;23.12;53.51;101974.53;5014840;28;4264;-77
2022/10/11 06:47:16;;;;;;;;;;;;;;;23.11;53.28;101978.78;5008392;28;4480;-77
2022/10/11 06:49:42;;;;;;;;;;;;;;;23.10;53.11;101983.09;5016066;28;3249;-70
2022/10/11 06:52:08;;;;;;;;;;;;;;;23.10;53.35;101994.66;5017234;28;3102;-70
2022/10/11 06:54:35;;;;;;;;;;;;;;;23.10;53.50;101986.72;5008431;28;4342;-68
2022/10/11 06:57:01;;;;;;;;;;;;;;;23.30;53.03;101989.19;5007608;28;4453;-63
2022/10/11 06:59:27;;;;;;;;;;;;;;;23.27;53.25;102002.78;5001271;28;4546;-66
2022/10/11 07:01:54;;;;;;;;;;;;;;;23.16;53.44;101998.63;5004860;28;4471;-67
2022/10/11 07:04:20;;;;;;;;;;;;;;;23.12;52.90;102004.16;5005500;28;4377;-66
2022/10/11 07:06:47;;;;;;;;;;;;;;;23.17;52.33;102000.09;5009838;28;4132;-64
2022/10/11 07:09:13;;;;;;;;;;;;;;;22.91;51.43;102007.34;5011988;28;2819;-70
2022/10/11 07:11:40;;;;;;;;;;;;;;;22.97;52.06;102008.41;5008034;28;3060;-71
2022/10/11 07:14:06;;;;;;;;;;;;;;;23.05;52.86;102021.84;5008938;28;3055;-76
2022/10/11 07:16:34;;;;;;;;;;;;;;;23.13;52.81;102010.69;5013770;28;2993;-68
2022/10/11 07:19:00;;;;;;;;;;;;;;;23.26;52.58;102017.88;5010396;28;2985;-68
2022/10/11 07:21:27;;;;;;;;;;;;;;;23.25;52.68;102017.13;5013414;28;2890;-73
2022/10/11 07:23:53;;;;;;;;;;;;;;;23.22;52.98;102018.41;5011113;28;3705;-73
2022/10/11 07:26:19;;;;;;;;;;;;;;;23.24;52.91;102026.44;5012689;28;3631;-68
2022/10/11 07:28:46;;;;;;;;;;;;;;;23.29;52.96;102023.09;5009657;28;2943;-68
2022/10/11 07:31:16;;;;;;;;;;;;;;;23.18;53.53;102039.19;5018074;28;3118;-83
2022/10/11 07:33:42;;;;;;;;;;;;;;;23.25;52.75;102034.47;5016544;28;2989;-63
2022/10/11 07:36:08;;;;;;;;;;;;;;;23.21;52.28;102034.25;5013619;28;3153;-68
2022/10/11 07:38:37;;;;;;;;;;;;;;;23.25;52.49;102043.16;5011621;28;3121;-65
2022/10/11 07:41:04;;;;;;;;;;;;;;;23.27;52.63;102045.38;5009671;28;4465;-63
2022/10/11 07:43:30;;;;;;;;;;;;;;;23.33;52.90;102045.72;5011886;28;4168;-67
2022/10/11 07:45:59;;;;;;;;;;;;;;;23.35;53.05;102055.22;5010683;28;3173;-63
2022/10/11 07:48:25;;;;;;;;;;;;;;;23.38;52.79;102051.03;5011238;28;3203;-69
2022/10/11 07:50:52;;;;;;;;;;;;;;;23.53;52.70;102054.69;5016380;28;3121;-65
2022/10/11 07:53:18;;;;;;;;;;;;;;;23.52;52.70;102056.09;5011838;28;2914;-62
2022/10/11 07:55:44;;;;;;;;;;;;;;;23.37;53.06;102052.44;5012487;28;2962;-65
2022/10/11 07:58:11;;;;;;;;;;;;;;;23.34;53.19;102053.75;5014255;28;3077;-76
2022/10/11 08:00:37;;;;;;;;;;;;;;;23.38;53.37;102053.94;5018386;28;3009;-63
2022/10/11 08:03:04;;;;;;;;;;;;;;;23.44;53.25;102061.44;5016107;28;3010;-68
2022/10/11 08:05:31;;;;;;;;;;;;;;;23.53;52.93;102057.59;5012770;28;3104;-64
2022/10/11 08:07:57;;;;;;;;;;;;;;;23.15;52.64;102059.94;5007554;28;4365;-71
2022/10/11 08:10:24;;;;;;;;;;;;;;;22.70;53.11;102061.09;5016305;28;2871;-71
2022/10/11 08:12:50;;;;;;;;;;;;;;;22.53;53.60;102056.53;5015503;28;2923;-70
2022/10/11 08:15:16;;;;;;;;;;;;;;;22.51;53.62;102058.56;5014542;28;2962;-69
2022/10/11 08:17:43;;;;;;;;;;;;;;;22.48;53.94;102054.81;5012194;28;3260;-71
2022/10/11 08:20:09;;;;;;;;;;;;;;;22.46;54.19;102051.81;5015599;28;3372;-72
2022/10/11 08:22:35;;;;;;;;;;;;;;;22.42;54.12;102063.13;5013998;28;4406;-71
2022/10/11 08:25:02;;;;;;;;;;;;;;;22.46;54.09;102068.38;5015547;28;3068;-71
2022/10/11 08:27:28;;;;;;;;;;;;;;;22.44;54.23;102056.72;5014380;28;2958;-71
2022/10/11 08:29:55;;;;;;;;;;;;;;;22.40;54.64;102065.13;5016599;28;3018;-73
2022/10/11 08:32:22;;;;;;;;;;;;;;;22.38;54.73;102074.44;5010956;28;3045;-72
2022/10/11 08:34:48;;;;;;;;;;;;;;;22.38;54.69;102062.91;5005597;28;3264;-71
2022/10/11 08:37:14;;;;;;;;;;;;;;;22.37;54.52;102078.72;5014726;28;2961;-72
2022/10/11 08:39:41;;;;;;;;;;;;;;;22.36;54.70;102075.06;5017253;28;3052;-71
2022/10/11 08:42:13;;;;;;;;;;;;;;;22.31;54.89;102073.34;5012669;28;2981;-71
2022/10/11 08:44:41;;;;;;;;;;;;;;;22.32;54.84;102076.97;5018015;28;3029;-70
2022/10/11 08:47:29;;;;;;;;;;;;;;;22.27;55.18;102069.47;5016708;28;2914;-69
2022/10/11 08:49:55;;;;;;;;;;;;;;;22.35;55.13;102079.31;5013147;28;3422;-66
2022/10/11 08:52:23;;;;;;;;;;;;;;;22.81;54.69;102076.84;5010695;28;4890;-67
2022/10/11 08:54:51;;;;;;;;;;;;;;;22.96;54.25;102084.16;5044956;28;3027;-68
2022/10/11 08:57:19;;;;;;;;;;;;;;;23.04;53.96;102083.88;5013515;28;4403;-69
2022/10/11 08:59:48;;;;;;;;;;;;;;;22.97;53.02;102092.16;5017214;28;2832;-67
2022/10/11 09:02:15;;;;;;;;;;;;;;;23.02;52.69;102089.53;5012706;28;3005;-71
2022/10/11 09:04:41;;;;;;;;;;;;;;;23.00;52.77;102090.94;5019111;28;1597;-68
2022/10/11 09:07:13;;;;;;;;;;;;;;;23.07;53.43;102086.25;5018781;28;3118;-68
2022/10/11 09:09:40;;;;;;;;;;;;;;;23.05;53.48;102091.91;5033507;28;2765;-78
2022/10/11 09:12:09;;;;;;;;;;;;;;;23.06;53.82;102098.44;5022475;28;1592;-70
2022/10/11 09:14:43;;;;;;;;;;;;;;;23.05;53.82;102102.72;5017168;28;2897;-68
2022/10/11 09:17:42;;;;;;;;;;;;;;;23.09;54.05;102097.16;5021030;28;4310;-71
2022/10/11 09:20:26;;;;;;;;;;;;;;;23.10;53.78;102092.88;5001847;28;2931;-64
2022/10/11 09:22:53;;;;;;;;;;;;;;;23.11;54.58;102094.38;5019276;28;1918;-67
2022/10/11 09:25:36;;;;;;;;;;;;;;;23.15;54.14;102083.78;5016862;28;3018;-68
2022/10/11 09:28:05;;;;;;;;;;;;;;;23.12;54.24;102090.09;5018755;28;3064;-71
2022/10/11 09:30:32;;;;;;;;;;;;;;;23.16;54.10;102087.44;5015260;28;2959;-70
2022/10/11 09:33:01;;;;;;;;;;;;;;;22.92;54.50;102101.25;5002830;28;4433;-73
2022/10/11 09:35:27;;;;;;;;;;;;;;;23.17;54.62;102098.34;5016235;28;3401;-78
2022/10/11 09:38:04;;;;;;;;;;;;;;;23.26;54.06;102096.66;5017234;28;3032;-74
2022/10/11 09:40:49;;;;;;;;;;;;;;;23.15;54.57;102092.44;5019134;28;3095;-71
2022/10/11 09:43:16;;;;;;;;;;;;;;;23.14;54.72;102088.06;5045875;28;2865;-74
2022/10/11 09:45:44;;;;;;;;;;;;;;;23.10;54.33;102084.22;5010483;28;2927;-67
2022/10/11 09:48:32;;;;;;;;;;;;;;;23.07;54.60;102089.13;5010316;28;2977;-71
2022/10/11 09:51:01;;;;;;;;;;;;;;;23.15;54.51;102106.16;5023191;28;3019;-68
2022/10/11 09:53:46;;;;;;;;;;;;;;;23.16;54.36;102102.63;5038848;28;3090;-70
2022/10/11 09:56:12;;;;;;;;;;;;;;;23.20;54.24;102102.09;5009133;28;4474;-69
2022/10/11 09:58:39;;;;;;;;;;;;;;;23.14;54.40;102096.75;5016878;28;3045;-70
2022/10/11 10:01:10;;;;;;;;;;;;;;;23.14;54.65;102093.84;5012758;28;3180;-75
2022/10/11 10:03:40;;;;;;;;;;;;;;;23.31;54.48;102095.47;5013843;28;3052;-75
2022/10/11 10:06:22;;;;;;;;;;;;;;;23.28;54.09;102099.66;5018879;28;2946;-74
2022/10/11 10:08:49;;;;;;;;;;;;;;;23.20;54.30;102102.09;5015449;28;2858;-70
2022/10/11 10:11:16;;;;;;;;;;;;;;;23.24;54.12;102099.44;5009662;28;4331;-70
2022/10/11 10:13:42;;;;;;;;;;;;;;;23.19;52.92;102104.25;5013841;28;2933;-70
2022/10/11 10:16:17;;;;;;;;;;;;;;;23.18;52.84;102110.66;5011404;28;4479;-68
2022/10/11 10:18:48;;;;;;;;;;;;;;;23.14;52.82;102105.41;5023813;28;3127;-66
2022/10/11 10:21:14;;;;;;;;;;;;;;;23.00;52.80;102108.28;5048470;28;3368;-68
2022/10/11 10:23:40;;;;;;;;;;;;;;;22.61;53.36;102113.22;5013923;28;3201;-69
2022/10/11 10:26:17;;;;;;;;;;;;;;;22.85;52.84;102114.59;5027543;28;3639;-70
2022/10/11 10:29:00;;;;;;;;;;;;;;;22.94;51.63;102115.81;5007713;28;3605;-69
2022/10/11 10:31:37;;;;;;;;;;;;;;;22.92;51.73;102107.78;5004549;28;4589;-65
2022/10/11 10:34:30;;;;;;;;;;;;;;;22.84;51.35;102118.91;5005971;28;4065;-67
2022/10/11 10:37:05;;;;;;;;;;;;;;;22.88;51.12;102118.34;5012381;28;3094;-68
2022/10/11 10:39:41;;;;;;;;;;;;;;;22.89;51.17;102114.84;5021862;28;3091;-66
2022/10/11 10:42:10;;;;;;;;;;;;;;;22.91;50.93;102120.75;5007957;28;3089;-73
2022/10/11 10:44:36;;;;;;;;;;;;;;;22.98;50.66;102116.78;5036048;28;2912;-69
2022/10/11 10:47:26;;;;;;;;;;;;;;;22.91;50.37;102117.84;5010096;28;2911;-68
2022/10/11 10:50:01;;;;;;;;;;;;;;;22.94;50.20;102119.44;5043796;28;3103;-64
2022/10/11 10:52:32;;;;;;;;;;;;;;;22.86;50.24;102115.34;5008283;28;3259;-63
2022/10/11 10:55:19;;;;;;;;;;;;;;;22.91;49.91;102128.66;5011201;28;2976;-66
2022/10/11 10:57:58;;;;;;;;;;;;;;;22.92;50.42;102113.56;5018005;28;3053;-63
2022/10/11 11:00:24;;;;;;;;;;;;;;;23.02;49.83;102121.31;5029183;28;3034;-66
2022/10/11 11:03:07;;;;;;;;;;;;;;;22.96;49.81;102119.56;5020070;28;3054;-70
2022/10/11 11:05:39;;;;;;;;;;;;;;;22.85;49.89;102119.66;5017780;28;4315;-65
2022/10/11 11:08:09;;;;;;;;;;;;;;;22.94;49.98;102116.56;5005231;28;4315;-67
2022/10/11 11:10:36;;;;;;;;;;;;;;;22.98;49.50;102108.13;5004925;28;4216;-66
2022/10/11 11:13:21;;;;;;;;;;;;;;;22.96;49.56;102119.56;5022538;28;3047;-64
2022/10/11 11:15:50;;;;;;;;;;;;;;;22.84;49.06;102112.34;5009712;28;4249;-64
2022/10/11 11:18:32;;;;;;;;;;;;;;;22.88;49.01;102110.44;5018938;28;2950;-65
2022/10/11 11:21:04;;;;;;;;;;;;;;;22.81;48.20;102111.50;5045104;28;2999;-65
2022/10/11 11:23:44;;;;;;;;;;;;;;;22.78;48.49;102104.09;5016529;28;3013;-66
2022/10/11 11:26:14;;;;;;;;;;;;;;;22.76;47.69;102112.66;5049426;28;3050;-65
2022/10/11 11:28:56;;;;;;;;;;;;;;;22.80;47.85;102107.13;5009871;28;2997;-66
2022/10/11 11:31:30;;;;;;;;;;;;;;;22.94;47.59;102092.72;5005882;28;4196;-66
2022/10/11 11:34:03;;;;;;;;;;;;;;;23.05;47.95;102099.84;5026019;28;2915;-64
2022/10/11 11:36:46;;;;;;;;;;;;;;;22.91;46.99;102106.28;5040199;28;3203;-62
2022/10/11 11:39:16;;;;;;;;;;;;;;;23.04;47.62;102098.31;5039304;28;3014;-68
2022/10/11 11:41:44;;;;;;;;;;;;;;;22.99;47.91;102095.19;5008434;28;3069;-67
2022/10/11 11:44:18;;;;;;;;;;;;;;;23.05;48.31;102102.72;5033666;28;3106;-66
2022/10/11 11:46:57;;;;;;;;;;;;;;;23.06;48.19;102095.53;5017234;28;2953;-66
2022/10/11 11:49:24;;;;;;;;;;;;;;;23.10;48.75;102090.00;5012159;28;3119;-61
2022/10/11 11:51:50;;;;;;;;;;;;;;;23.04;48.74;102090.41;5028347;28;2995;-68
2022/10/11 11:54:23;;;;;;;;;;;;;;;23.07;49.20;102097.81;5012750;28;3043;-67
2022/10/11 11:56:53;;;;;;;;;;;;;;;23.10;49.12;102095.78;5012946;28;2910;-67
2022/10/11 11:59:22;;;;;;;;;;;;;;;23.09;49.28;102085.59;5012634;28;3075;-65
2022/10/11 12:02:00;;;;;;;;;;;;;;;22.91;49.72;102091.84;5047088;28;3043;-68
2022/10/11 12:04:37;;;;;;;;;;;;;;;22.81;50.02;102091.28;5013652;28;4413;-70
2022/10/11 12:07:07;;;;;;;;;;;;;;;22.98;50.08;102087.91;5010297;28;4275;-68
2022/10/11 12:09:43;;;;;;;;;;;;;;;22.95;49.34;102094.19;5010757;28;3610;-66
2022/10/11 12:12:28;;;;;;;;;;;;;;;22.98;49.42;102090.78;5042517;28;3042;-65
2022/10/11 12:15:14;;;;;;;;;;;;;;;23.12;49.67;102096.63;5011143;28;3200;-66
2022/10/11 12:17:56;;;;;;;;;;;;;;;23.17;50.06;102094.72;5008007;28;4609;-69
2022/10/11 12:20:40;;;;;;;;;;;;;;;23.35;49.47;102097.84;4993197;28;3224;-68
2022/10/11 12:23:25;;;;;;;;;;;;;;;23.36;49.64;102097.19;5005418;28;4486;-66
2022/10/11 12:26:10;;;;;;;;;;;;;;;23.35;49.79;102092.06;5010947;28;2973;-69
2022/10/11 12:28:37;;;;;;;;;;;;;;;23.42;49.79;102088.84;5014071;28;2951;-69
2022/10/11 12:31:16;;;;;;;;;;;;;;;23.44;50.03;102087.47;5009257;28;4160;-74
2022/10/11 12:33:45;;;;;;;;;;;;;;;23.08;49.58;102081.22;5012583;28;3632;-72
2022/10/11 12:36:28;;;;;;;;;;;;;;;23.02;48.36;102081.66;5006265;28;3045;-70
2022/10/11 12:39:13;;;;;;;;;;;;;;;22.81;47.43;102073.94;5009904;28;4518;-68
2022/10/11 12:41:52;;;;;;;;;;;;;;;22.54;46.00;102080.38;5009730;28;3109;-70
2022/10/11 12:44:20;;;;;;;;;;;;;;;22.67;45.74;102081.81;5013561;28;3175;-74
2022/10/11 12:46:49;;;;;;;;;;;;;;;22.85;44.33;102087.88;5017418;28;3073;-79
2022/10/11 12:49:35;;;;;;;;;;;;;;;22.56;42.98;102086.25;5013910;28;2965;-70
2022/10/11 12:52:16;;;;;;;;;;;;;;;22.58;43.16;102086.38;5020505;28;3068;-80
2022/10/11 12:54:48;;;;;;;;;;;;;;;22.53;42.66;102091.19;5005873;28;4402;-65
2022/10/11 12:57:32;;;;;;;;;;;;;;;22.45;42.35;102084.19;5010205;28;3201;-65
2022/10/11 13:00:31;;;;;;;;;;;;;;;22.37;42.92;102081.59;5009018;28;3119;-65